createdAt,value
2019-02-22T00:00:34.789Z,21.22
2019-02-22T00:01:34.785Z,21.22
2019-02-22T00:02:34.779Z,21.26
2019-02-22T00:03:34.752Z,21.24
2019-02-22T00:04:34.743Z,21.28
2019-02-22T00:05:34.729Z,21.19
2019-02-22T00:06:34.717Z,21.27
2019-02-22T00:07:34.756Z,21.24
2019-02-22T00:08:34.696Z,21.18
2019-02-22T00:09:34.684Z,21.28
2019-02-22T00:10:34.671Z,21.26
2019-02-22T00:11:34.661Z,21.27
2019-02-22T00:12:34.664Z,21.27
2019-02-22T00:13:34.648Z,21.28
2019-02-22T00:14:34.626Z,21.21
2019-02-22T00:15:36.276Z,21.24
2019-02-22T00:16:34.605Z,21.22
2019-02-22T00:17:34.625Z,21.24
2019-02-22T00:18:34.582Z,21.28
2019-02-22T00:19:34.575Z,21.26
2019-02-22T00:20:34.559Z,21.26
2019-02-22T00:21:34.549Z,21.30
2019-02-22T00:22:34.568Z,21.31
2019-02-22T00:23:34.524Z,21.33
2019-02-22T00:24:34.512Z,21.28
2019-02-22T00:25:34.508Z,21.30
2019-02-22T00:26:34.489Z,21.31
2019-02-22T00:27:34.487Z,21.24
2019-02-22T00:28:34.484Z,21.27
2019-02-22T00:29:34.455Z,21.37
2019-02-22T00:30:34.447Z,21.36
2019-02-22T00:31:34.444Z,21.42
2019-02-22T00:32:34.423Z,21.34
2019-02-22T00:33:34.426Z,21.36
2019-02-22T00:34:34.540Z,21.34
2019-02-22T00:35:34.539Z,21.33
2019-02-22T00:36:34.528Z,21.34
2019-02-22T00:37:34.371Z,21.24
2019-02-22T00:38:34.367Z,21.37
2019-02-22T00:39:34.341Z,21.31
2019-02-22T00:40:34.329Z,21.37
2019-02-22T00:41:34.318Z,21.30
2019-02-22T00:42:34.307Z,21.24
2019-02-22T00:43:34.322Z,21.31
2019-02-22T00:44:34.286Z,21.28
2019-02-22T00:45:34.273Z,21.30
2019-02-22T00:46:34.264Z,21.31
2019-02-22T00:47:34.251Z,21.28
2019-02-22T00:48:34.257Z,21.26
2019-02-22T00:49:34.240Z,21.22
2019-02-22T00:50:34.240Z,21.16
2019-02-22T00:51:34.207Z,21.12
2019-02-22T00:52:34.196Z,21.15
2019-02-22T00:53:34.199Z,21.19
2019-02-22T00:54:34.170Z,21.11
2019-02-22T00:55:34.184Z,21.16
2019-02-22T00:56:34.147Z,21.05
2019-02-22T00:57:34.137Z,20.94
2019-02-22T00:58:34.141Z,20.85
2019-02-22T00:59:34.115Z,20.90
2019-02-22T01:00:34.103Z,20.76
2019-02-22T01:01:34.099Z,20.72
2019-02-22T01:02:34.081Z,20.64
2019-02-22T01:03:34.084Z,20.69
2019-02-22T01:04:34.055Z,20.61
2019-02-22T01:05:34.045Z,20.63
2019-02-22T01:06:34.034Z,20.54
2019-02-22T01:07:34.034Z,20.51
2019-02-22T01:08:34.028Z,20.40
2019-02-22T01:09:33.999Z,20.44
2019-02-22T01:10:33.988Z,20.37
2019-02-22T01:11:33.977Z,20.35
2019-02-22T01:12:33.964Z,20.34
2019-02-22T01:13:33.976Z,20.38
2019-02-22T01:14:33.942Z,20.34
2019-02-22T01:15:33.930Z,20.31
2019-02-22T01:16:33.919Z,20.35
2019-02-22T01:17:33.911Z,20.23
2019-02-22T01:18:33.914Z,20.33
2019-02-22T01:19:33.903Z,20.30
2019-02-22T01:20:33.873Z,20.26
2019-02-22T01:21:33.861Z,20.23
2019-02-22T01:22:33.855Z,20.38
2019-02-22T01:23:33.855Z,20.22
2019-02-22T01:24:33.829Z,20.30
2019-02-22T01:25:33.828Z,20.26
2019-02-22T01:26:33.805Z,20.17
2019-02-22T01:27:33.793Z,20.26
2019-02-22T01:28:33.798Z,20.23
2019-02-22T01:29:33.770Z,20.30
2019-02-22T01:30:33.769Z,20.17
2019-02-22T01:31:33.769Z,20.25
2019-02-22T01:32:33.735Z,20.30
2019-02-22T01:33:33.739Z,20.17
2019-02-22T01:34:33.719Z,20.25
2019-02-22T01:35:33.701Z,20.17
2019-02-22T01:36:33.692Z,20.17
2019-02-22T01:37:33.688Z,20.15
2019-02-22T01:38:33.682Z,20.19
2019-02-22T01:39:33.658Z,20.26
2019-02-22T01:40:43.093Z,20.13
2019-02-22T01:41:34.636Z,20.16
2019-02-22T01:42:33.626Z,20.15
2019-02-22T01:43:33.622Z,20.16
2019-02-22T01:44:33.629Z,20.20
2019-02-22T01:45:33.592Z,20.22
2019-02-22T01:46:33.584Z,20.22
2019-02-22T01:47:33.570Z,20.25
2019-02-22T01:48:33.555Z,20.27
2019-02-22T01:49:33.570Z,20.10
2019-02-22T01:50:33.534Z,20.22
2019-02-22T01:51:33.522Z,20.20
2019-02-22T01:52:33.510Z,20.19
2019-02-22T01:53:33.502Z,20.25
2019-02-22T01:54:33.505Z,20.15
2019-02-22T01:55:33.484Z,20.25
2019-02-22T01:56:33.466Z,20.12
2019-02-22T01:57:33.465Z,20.12
2019-02-22T01:58:33.443Z,20.15
2019-02-22T01:59:33.448Z,20.23
2019-02-22T02:00:33.422Z,20.13
2019-02-22T02:01:33.416Z,20.12
2019-02-22T02:02:33.400Z,20.02
2019-02-22T02:03:33.387Z,20.05
2019-02-22T02:04:33.392Z,20.10
2019-02-22T02:05:33.365Z,20.08
2019-02-22T02:06:33.364Z,20.10
2019-02-22T02:07:33.355Z,20.19
2019-02-22T02:08:33.333Z,20.15
2019-02-22T02:09:33.339Z,20.16
2019-02-22T02:10:33.314Z,20.16
2019-02-22T02:11:33.300Z,20.13
2019-02-22T02:12:33.289Z,20.10
2019-02-22T02:13:33.285Z,20.08
2019-02-22T02:14:33.281Z,20.08
2019-02-22T02:15:33.255Z,20.05
2019-02-22T02:16:33.244Z,20.00
2019-02-22T02:17:33.233Z,20.04
2019-02-22T02:18:33.227Z,19.95
2019-02-22T02:19:33.234Z,19.92
2019-02-22T02:20:33.205Z,19.94
2019-02-22T02:21:33.196Z,19.92
2019-02-22T02:22:33.179Z,19.98
2019-02-22T02:23:33.166Z,20.01
2019-02-22T02:24:33.173Z,20.01
2019-02-22T02:25:33.151Z,19.98
2019-02-22T02:26:33.136Z,20.08
2019-02-22T02:27:33.123Z,20.00
2019-02-22T02:28:33.112Z,20.02
2019-02-22T02:29:33.113Z,20.04
2019-02-22T02:30:33.088Z,20.12
2019-02-22T02:31:33.087Z,20.13
2019-02-22T02:32:33.066Z,20.08
2019-02-22T02:33:33.057Z,20.07
2019-02-22T02:34:33.063Z,20.05
2019-02-22T02:35:33.037Z,20.12
2019-02-22T02:36:33.025Z,20.15
2019-02-22T02:37:33.016Z,20.12
2019-02-22T02:38:32.999Z,20.12
2019-02-22T02:39:33.004Z,20.10
2019-02-22T02:40:32.980Z,20.07
2019-02-22T02:41:32.966Z,20.04
2019-02-22T02:42:32.957Z,20.04
2019-02-22T02:43:32.956Z,19.90
2019-02-22T02:44:32.956Z,20.02
2019-02-22T02:45:32.924Z,19.94
2019-02-22T02:46:32.920Z,19.89
2019-02-22T02:47:32.909Z,19.87
2019-02-22T02:48:32.892Z,19.98
2019-02-22T02:49:32.890Z,19.89
2019-02-22T02:50:32.887Z,19.92
2019-02-22T02:51:32.861Z,20.00
2019-02-22T02:52:32.851Z,19.98
2019-02-22T02:53:32.835Z,19.89
2019-02-22T02:54:32.828Z,19.87
2019-02-22T02:55:32.837Z,19.92
2019-02-22T02:56:32.801Z,19.89
2019-02-22T02:57:32.799Z,19.94
2019-02-22T02:58:32.787Z,19.94
2019-02-22T02:59:32.768Z,19.94
2019-02-22T03:00:32.774Z,19.90
2019-02-22T03:01:32.753Z,20.02
2019-02-22T03:02:32.739Z,20.01
2019-02-22T03:03:32.725Z,20.02
2019-02-22T03:04:32.713Z,19.94
2019-02-22T03:05:32.717Z,19.90
2019-02-22T03:06:32.692Z,19.90
2019-02-22T03:07:32.688Z,19.80
2019-02-22T03:08:32.669Z,19.90
2019-02-22T03:09:32.665Z,19.90
2019-02-22T03:10:32.664Z,19.82
2019-02-22T03:11:32.636Z,19.76
2019-02-22T03:12:32.625Z,19.80
2019-02-22T03:13:32.621Z,19.79
2019-02-22T03:14:32.604Z,19.82
2019-02-22T03:15:32.608Z,19.78
2019-02-22T03:16:32.583Z,19.80
2019-02-22T03:17:32.571Z,19.78
2019-02-22T03:18:32.559Z,19.79
2019-02-22T03:19:32.555Z,19.78
2019-02-22T03:20:32.558Z,19.79
2019-02-22T03:21:32.533Z,19.82
2019-02-22T03:22:32.522Z,19.72
2019-02-22T03:23:32.504Z,19.82
2019-02-22T03:24:32.503Z,19.78
2019-02-22T03:25:32.511Z,19.82
2019-02-22T03:26:32.474Z,19.82
2019-02-22T03:27:32.461Z,19.76
2019-02-22T03:28:32.451Z,19.76
2019-02-22T03:29:32.439Z,19.85
2019-02-22T03:30:32.454Z,19.79
2019-02-22T03:31:32.427Z,19.79
2019-02-22T03:32:32.414Z,19.82
2019-02-22T03:33:32.396Z,19.72
2019-02-22T03:34:32.385Z,19.72
2019-02-22T03:35:32.388Z,19.94
2019-02-22T03:36:32.364Z,19.89
2019-02-22T03:37:32.361Z,19.78
2019-02-22T03:38:32.341Z,19.79
2019-02-22T03:39:32.332Z,19.86
2019-02-22T03:40:32.350Z,19.94
2019-02-22T03:41:33.520Z,19.95
2019-02-22T03:42:32.297Z,19.90
2019-02-22T03:43:32.293Z,20.02
2019-02-22T03:44:32.278Z,20.04
2019-02-22T03:45:32.266Z,20.13
2019-02-22T03:46:32.270Z,20.10
2019-02-22T03:47:34.978Z,20.08
2019-02-22T03:48:32.236Z,20.22
2019-02-22T03:49:32.231Z,20.22
2019-02-22T03:50:32.218Z,20.25
2019-02-22T03:51:32.219Z,20.30
2019-02-22T03:52:32.188Z,20.22
2019-02-22T03:53:32.178Z,20.26
2019-02-22T03:54:32.167Z,20.22
2019-02-22T03:55:32.170Z,20.33
2019-02-22T03:56:32.161Z,20.23
2019-02-22T03:57:32.139Z,20.27
2019-02-22T03:58:32.122Z,20.25
2019-02-22T03:59:32.176Z,20.35
2019-02-22T04:00:32.104Z,20.20
2019-02-22T04:01:32.121Z,20.16
2019-02-22T04:02:32.086Z,20.23
2019-02-22T04:03:32.069Z,20.16
2019-02-22T04:04:32.062Z,20.26
2019-02-22T04:05:32.053Z,20.26
2019-02-22T04:06:32.050Z,20.19
2019-02-22T04:07:32.036Z,20.13
2019-02-22T04:08:32.015Z,20.15
2019-02-22T04:09:32.003Z,20.17
2019-02-22T04:10:31.995Z,20.22
2019-02-22T04:11:44.643Z,20.25
2019-02-22T04:12:32.976Z,20.26
2019-02-22T04:13:31.970Z,20.26
2019-02-22T04:14:31.949Z,20.25
2019-02-22T04:15:31.939Z,20.17
2019-02-22T04:16:31.942Z,20.27
2019-02-22T04:17:31.915Z,20.23
2019-02-22T04:18:31.903Z,20.33
2019-02-22T04:19:31.904Z,20.31
2019-02-22T04:20:31.884Z,20.22
2019-02-22T04:21:31.887Z,20.25
2019-02-22T04:22:31.864Z,20.25
2019-02-22T04:23:31.850Z,20.22
2019-02-22T04:24:31.840Z,20.10
2019-02-22T04:25:31.838Z,20.15
2019-02-22T04:26:31.835Z,20.08
2019-02-22T04:27:31.809Z,20.00
2019-02-22T04:28:31.796Z,19.95
2019-02-22T04:29:31.821Z,19.92
2019-02-22T04:30:31.774Z,19.90
2019-02-22T04:31:31.778Z,19.94
2019-02-22T04:32:31.761Z,19.78
2019-02-22T04:33:31.744Z,19.82
2019-02-22T04:34:31.729Z,19.78
2019-02-22T04:35:31.720Z,19.70
2019-02-22T04:36:31.728Z,19.71
2019-02-22T04:37:31.698Z,19.70
2019-02-22T04:38:31.692Z,19.68
2019-02-22T04:39:31.675Z,19.62
2019-02-22T04:40:31.663Z,19.58
2019-02-22T04:41:31.670Z,19.62
2019-02-22T04:42:31.644Z,19.60
2019-02-22T04:43:31.633Z,19.58
2019-02-22T04:44:31.632Z,19.58
2019-02-22T04:45:31.612Z,19.55
2019-02-22T04:46:31.616Z,19.64
2019-02-22T04:47:31.586Z,19.61
2019-02-22T04:48:31.575Z,19.67
2019-02-22T04:49:31.565Z,19.64
2019-02-22T04:50:31.594Z,19.68
2019-02-22T04:51:31.559Z,19.78
2019-02-22T04:52:31.530Z,19.76
2019-02-22T04:53:31.524Z,19.79
2019-02-22T04:54:31.513Z,19.79
2019-02-22T04:55:31.499Z,19.79
2019-02-22T04:56:31.535Z,19.76
2019-02-22T04:57:31.478Z,19.78
2019-02-22T04:58:31.466Z,19.87
2019-02-22T04:59:31.456Z,19.87
2019-02-22T05:00:31.446Z,19.79
2019-02-22T05:01:31.434Z,19.90
2019-02-22T05:02:31.442Z,19.79
2019-02-22T05:03:31.412Z,19.79
2019-02-22T05:04:31.401Z,19.79
2019-02-22T05:05:31.388Z,19.82
2019-02-22T05:06:31.383Z,19.68
2019-02-22T05:07:31.383Z,19.70
2019-02-22T05:08:31.368Z,19.68
2019-02-22T05:09:31.347Z,19.61
2019-02-22T05:10:31.335Z,19.57
2019-02-22T05:11:31.327Z,19.55
2019-02-22T05:12:31.327Z,19.53
2019-02-22T05:13:31.306Z,19.53
2019-02-22T05:14:31.301Z,19.57
2019-02-22T05:15:31.281Z,19.50
2019-02-22T05:16:31.268Z,19.58
2019-02-22T05:17:31.271Z,19.60
2019-02-22T05:18:31.246Z,19.58
2019-02-22T05:19:31.234Z,19.62
2019-02-22T05:20:31.276Z,19.58
2019-02-22T05:21:31.211Z,19.62
2019-02-22T05:22:31.217Z,19.60
2019-02-22T05:23:31.190Z,19.67
2019-02-22T05:24:31.178Z,19.65
2019-02-22T05:25:31.192Z,19.72
2019-02-22T05:26:31.164Z,19.71
2019-02-22T05:27:31.161Z,19.68
2019-02-22T05:28:31.135Z,19.65
2019-02-22T05:29:31.123Z,19.70
2019-02-22T05:30:31.112Z,19.65
2019-02-22T05:31:31.103Z,19.71
2019-02-22T05:32:31.120Z,19.70
2019-02-22T05:33:31.078Z,19.68
2019-02-22T05:34:31.067Z,19.60
2019-02-22T05:35:31.059Z,19.61
2019-02-22T05:36:31.055Z,19.62
2019-02-22T05:37:31.051Z,19.55
2019-02-22T05:38:31.031Z,19.61
2019-02-22T05:39:31.013Z,19.62
2019-02-22T05:40:31.003Z,19.58
2019-02-22T05:41:31.019Z,19.58
2019-02-22T05:42:31.010Z,19.62
2019-02-22T05:43:30.973Z,19.57
2019-02-22T05:44:30.965Z,19.58
2019-02-22T05:45:30.971Z,19.53
2019-02-22T05:46:30.940Z,19.55
2019-02-22T05:47:30.944Z,19.60
2019-02-22T05:48:30.925Z,19.57
2019-02-22T05:49:30.908Z,19.57
2019-02-22T05:50:30.902Z,19.47
2019-02-22T05:51:30.881Z,19.50
2019-02-22T05:52:30.887Z,19.45
2019-02-22T05:53:30.861Z,19.46
2019-02-22T05:54:30.854Z,19.42
2019-02-22T05:55:30.839Z,19.38
2019-02-22T05:56:30.834Z,19.45
2019-02-22T05:57:30.832Z,19.46
2019-02-22T05:58:30.811Z,19.34
2019-02-22T05:59:30.796Z,19.39
2019-02-22T06:00:30.871Z,19.28
2019-02-22T06:01:30.775Z,19.28
2019-02-22T06:02:33.579Z,19.25
2019-02-22T06:03:30.752Z,19.27
2019-02-22T06:04:30.788Z,19.28
2019-02-22T06:05:30.732Z,19.27
2019-02-22T06:06:30.723Z,19.21
2019-02-22T06:07:30.722Z,19.24
2019-02-22T06:08:30.705Z,19.16
2019-02-22T06:09:30.685Z,19.20
2019-02-22T06:10:30.673Z,19.23
2019-02-22T06:11:30.676Z,19.28
2019-02-22T06:12:34.448Z,19.32
2019-02-22T06:13:30.640Z,19.35
2019-02-22T06:14:30.640Z,19.45
2019-02-22T06:15:31.513Z,19.52
2019-02-22T06:16:30.607Z,19.55
2019-02-22T06:17:30.613Z,19.60
2019-02-22T06:18:30.586Z,19.64
2019-02-22T06:19:30.574Z,19.68
2019-02-22T06:20:30.571Z,19.80
2019-02-22T06:21:30.555Z,19.75
2019-02-22T06:22:30.558Z,19.83
2019-02-22T06:23:30.573Z,19.79
2019-02-22T06:24:30.524Z,19.95
2019-02-22T06:25:30.507Z,19.97
2019-02-22T06:26:30.599Z,20.05
2019-02-22T06:27:30.524Z,20.13
2019-02-22T06:28:30.473Z,20.10
2019-02-22T06:29:30.462Z,20.10
2019-02-22T06:30:30.451Z,20.15
2019-02-22T06:31:30.512Z,20.13
2019-02-22T06:32:30.482Z,20.10
2019-02-22T06:33:30.452Z,20.17
2019-02-22T06:34:30.422Z,20.12
2019-02-22T06:35:30.425Z,20.16
2019-02-22T06:36:30.390Z,20.16
2019-02-22T06:37:30.376Z,20.13
2019-02-22T06:38:30.393Z,20.15
2019-02-22T06:39:30.355Z,20.20
2019-02-22T06:40:30.366Z,20.17
2019-02-22T06:41:30.334Z,20.19
2019-02-22T06:42:30.327Z,20.08
2019-02-22T06:43:30.360Z,20.17
2019-02-22T06:44:30.312Z,20.19
2019-02-22T06:45:30.290Z,20.22
2019-02-22T06:46:30.278Z,20.13
2019-02-22T06:47:30.268Z,20.16
2019-02-22T06:48:30.270Z,19.95
2019-02-22T06:49:30.245Z,19.82
2019-02-22T06:50:33.785Z,19.76
2019-02-22T06:51:30.223Z,19.68
2019-02-22T06:52:30.209Z,19.68
2019-02-22T06:53:30.212Z,19.80
2019-02-22T06:54:30.190Z,19.94
2019-02-22T06:55:30.174Z,20.00
2019-02-22T06:56:30.175Z,20.08
2019-02-22T06:57:30.154Z,20.15
2019-02-22T06:58:30.157Z,20.19
2019-02-22T06:59:30.130Z,20.27
2019-02-22T07:00:30.122Z,20.34
2019-02-22T07:01:30.109Z,20.44
2019-02-22T07:02:30.104Z,20.44
2019-02-22T07:03:30.102Z,20.48
2019-02-22T07:04:30.077Z,20.63
2019-02-22T07:05:30.068Z,20.69
2019-02-22T07:06:30.057Z,20.66
2019-02-22T07:07:30.041Z,20.63
2019-02-22T07:08:30.064Z,20.69
2019-02-22T07:09:30.020Z,20.81
2019-02-22T07:10:30.009Z,20.76
2019-02-22T07:11:29.999Z,20.81
2019-02-22T07:12:29.985Z,20.87
2019-02-22T07:13:30.004Z,20.94
2019-02-22T07:14:29.971Z,20.96
2019-02-22T07:15:29.951Z,20.94
2019-02-22T07:16:29.943Z,21.01
2019-02-22T07:17:29.929Z,20.97
2019-02-22T07:18:29.922Z,21.00
2019-02-22T07:19:29.920Z,20.97
2019-02-22T07:20:29.903Z,21.09
2019-02-22T07:21:43.734Z,21.11
2019-02-22T07:22:30.871Z,21.13
2019-02-22T07:23:29.859Z,21.09
2019-02-22T07:24:29.866Z,21.13
2019-02-22T07:25:29.838Z,21.15
2019-02-22T07:26:29.835Z,21.13
2019-02-22T07:27:29.814Z,21.13
2019-02-22T07:28:29.804Z,21.19
2019-02-22T07:29:29.812Z,21.22
2019-02-22T07:30:29.785Z,21.30
2019-02-22T07:31:29.769Z,21.27
2019-02-22T07:32:29.766Z,21.27
2019-02-22T07:33:29.745Z,21.26
2019-02-22T07:34:29.762Z,21.16
2019-02-22T07:35:29.729Z,20.90
2019-02-22T07:36:29.737Z,20.73
2019-02-22T07:37:29.703Z,20.56
2019-02-22T07:38:29.708Z,20.54
2019-02-22T07:39:29.696Z,20.50
2019-02-22T07:40:29.672Z,20.48
2019-02-22T07:41:29.658Z,20.41
2019-02-22T07:42:29.645Z,20.50
2019-02-22T07:43:29.633Z,20.46
2019-02-22T07:44:29.644Z,20.61
2019-02-22T07:45:29.615Z,20.61
2019-02-22T07:46:29.602Z,20.61
2019-02-22T07:47:29.589Z,20.69
2019-02-22T07:48:29.579Z,20.64
2019-02-22T07:49:29.588Z,20.68
2019-02-22T07:50:29.566Z,20.64
2019-02-22T07:51:29.543Z,20.78
2019-02-22T07:52:29.534Z,20.81
2019-02-22T07:53:29.525Z,20.76
2019-02-22T07:54:29.524Z,20.79
2019-02-22T07:55:29.497Z,20.81
2019-02-22T07:56:29.491Z,20.88
2019-02-22T07:57:29.477Z,20.94
2019-02-22T07:58:29.462Z,20.94
2019-02-22T07:59:29.466Z,20.87
2019-02-22T08:00:29.439Z,20.94
2019-02-22T08:01:29.430Z,20.90
2019-02-22T08:02:29.423Z,21.03
2019-02-22T08:03:29.409Z,21.06
2019-02-22T08:04:29.411Z,21.01
2019-02-22T08:05:29.383Z,21.11
2019-02-22T08:06:29.387Z,20.97
2019-02-22T08:07:29.361Z,21.12
2019-02-22T08:08:29.360Z,21.13
2019-02-22T08:09:29.352Z,21.18
2019-02-22T08:10:29.326Z,21.12
2019-02-22T08:11:29.315Z,21.13
2019-02-22T08:12:29.302Z,21.19
2019-02-22T08:13:29.294Z,21.16
2019-02-22T08:14:29.308Z,21.13
2019-02-22T08:15:29.270Z,21.12
2019-02-22T08:16:29.258Z,21.09
2019-02-22T08:17:29.246Z,21.24
2019-02-22T08:18:29.235Z,21.22
2019-02-22T08:19:29.242Z,21.13
2019-02-22T08:20:29.220Z,21.22
2019-02-22T08:21:29.201Z,21.26
2019-02-22T08:22:29.190Z,21.26
2019-02-22T08:23:29.181Z,21.27
2019-02-22T08:24:29.196Z,21.28
2019-02-22T08:25:29.157Z,21.19
2019-02-22T08:26:29.154Z,21.21
2019-02-22T08:27:29.136Z,21.19
2019-02-22T08:28:29.124Z,21.24
2019-02-22T08:29:29.112Z,21.24
2019-02-22T08:30:29.116Z,21.19
2019-02-22T08:31:29.094Z,21.22
2019-02-22T08:32:29.085Z,21.21
2019-02-22T08:33:29.069Z,21.26
2019-02-22T08:34:29.057Z,21.22
2019-02-22T08:35:29.061Z,21.26
2019-02-22T08:36:29.035Z,21.21
2019-02-22T08:37:29.025Z,21.21
2019-02-22T08:38:29.060Z,21.21
2019-02-22T08:39:29.001Z,21.21
2019-02-22T08:40:29.007Z,21.22
2019-02-22T08:41:28.979Z,21.22
2019-02-22T08:42:28.968Z,21.28
2019-02-22T08:43:31.838Z,21.28
2019-02-22T08:44:28.958Z,21.19
2019-02-22T08:45:28.949Z,21.28
2019-02-22T08:46:28.923Z,21.22
2019-02-22T08:47:28.927Z,21.18
2019-02-22T08:48:28.900Z,21.13
2019-02-22T08:49:28.889Z,21.21
2019-02-22T08:50:28.903Z,21.22
2019-02-22T08:51:28.868Z,21.21
2019-02-22T08:52:28.857Z,21.18
2019-02-22T08:53:28.850Z,21.27
2019-02-22T08:54:28.835Z,21.24
2019-02-22T08:55:28.838Z,21.19
2019-02-22T08:56:28.821Z,21.26
2019-02-22T08:57:28.802Z,21.19
2019-02-22T08:58:28.789Z,21.22
2019-02-22T08:59:28.778Z,21.27
2019-02-22T09:00:28.783Z,21.28
2019-02-22T09:01:28.756Z,21.22
2019-02-22T09:02:28.750Z,21.30
2019-02-22T09:03:28.733Z,21.36
2019-02-22T09:04:28.723Z,21.38
2019-02-22T09:05:28.730Z,21.37
2019-02-22T09:06:28.700Z,21.40
2019-02-22T09:07:28.692Z,21.40
2019-02-22T09:08:28.685Z,21.48
2019-02-22T09:09:28.667Z,21.51
2019-02-22T09:10:28.671Z,21.46
2019-02-22T09:11:28.647Z,21.53
2019-02-22T09:12:28.632Z,21.56
2019-02-22T09:13:28.625Z,21.56
2019-02-22T09:14:28.619Z,21.59
2019-02-22T09:15:28.615Z,21.56
2019-02-22T09:16:28.587Z,21.59
2019-02-22T09:17:28.580Z,21.68
2019-02-22T09:18:28.569Z,21.56
2019-02-22T09:19:28.566Z,21.71
2019-02-22T09:20:28.587Z,21.64
2019-02-22T09:21:28.533Z,21.64
2019-02-22T09:22:28.522Z,21.68
2019-02-22T09:23:28.511Z,21.68
2019-02-22T09:24:28.500Z,21.64
2019-02-22T09:25:28.506Z,21.67
2019-02-22T09:26:28.482Z,21.63
2019-02-22T09:27:28.467Z,21.66
2019-02-22T09:28:28.455Z,21.64
2019-02-22T09:29:28.445Z,21.64
2019-02-22T09:30:28.450Z,21.67
2019-02-22T09:31:28.422Z,21.63
2019-02-22T09:32:28.436Z,21.58
2019-02-22T09:33:28.399Z,21.63
2019-02-22T09:34:28.389Z,21.68
2019-02-22T09:35:28.393Z,21.56
2019-02-22T09:36:28.370Z,21.61
2019-02-22T09:37:28.355Z,21.55
2019-02-22T09:38:28.349Z,21.66
2019-02-22T09:39:28.335Z,21.55
2019-02-22T09:40:28.337Z,21.61
2019-02-22T09:41:28.313Z,21.59
2019-02-22T09:42:28.300Z,21.61
2019-02-22T09:43:28.289Z,21.58
2019-02-22T09:44:28.283Z,21.53
2019-02-22T09:45:28.290Z,21.58
2019-02-22T09:46:28.257Z,21.64
2019-02-22T09:47:28.251Z,21.53
2019-02-22T09:48:28.234Z,21.68
2019-02-22T09:49:28.220Z,21.66
2019-02-22T09:50:28.229Z,21.61
2019-02-22T09:51:28.215Z,21.63
2019-02-22T09:52:28.187Z,21.67
2019-02-22T09:53:28.176Z,21.59
2019-02-22T09:54:28.169Z,21.61
2019-02-22T09:55:28.155Z,21.66
2019-02-22T09:56:28.168Z,21.66
2019-02-22T09:57:28.131Z,21.58
2019-02-22T09:58:28.122Z,21.55
2019-02-22T09:59:28.110Z,21.67
2019-02-22T10:00:28.099Z,21.64
2019-02-22T10:01:28.102Z,21.56
2019-02-22T10:02:28.080Z,21.58
2019-02-22T10:03:28.067Z,21.59
2019-02-22T10:04:28.183Z,21.67
2019-02-22T10:05:28.042Z,21.61
2019-02-22T10:06:28.052Z,21.55
2019-02-22T10:07:28.021Z,21.58
2019-02-22T10:08:28.016Z,21.64
2019-02-22T10:09:27.998Z,21.56
2019-02-22T10:10:27.988Z,21.55
2019-02-22T10:11:27.992Z,21.64
2019-02-22T10:12:27.967Z,21.63
2019-02-22T10:13:27.954Z,21.66
2019-02-22T10:14:28.637Z,21.61
2019-02-22T10:15:27.933Z,21.64
2019-02-22T10:16:27.938Z,21.64
2019-02-22T10:17:27.932Z,21.61
2019-02-22T10:18:27.902Z,21.59
2019-02-22T10:19:27.888Z,21.67
2019-02-22T10:20:27.885Z,21.58
2019-02-22T10:21:27.881Z,21.63
2019-02-22T10:22:27.856Z,21.58
2019-02-22T10:23:27.843Z,21.61
2019-02-22T10:24:27.832Z,21.68
2019-02-22T10:25:27.832Z,21.59
2019-02-22T10:26:27.832Z,21.64
2019-02-22T10:27:27.799Z,21.58
2019-02-22T10:28:27.791Z,21.67
2019-02-22T10:29:27.774Z,21.67
2019-02-22T10:30:27.764Z,21.64
2019-02-22T10:31:27.768Z,21.61
2019-02-22T10:32:27.751Z,21.56
2019-02-22T10:33:36.173Z,21.61
2019-02-22T10:34:28.718Z,21.61
2019-02-22T10:35:27.709Z,21.53
2019-02-22T10:36:27.714Z,21.59
2019-02-22T10:37:27.686Z,21.59
2019-02-22T10:38:27.682Z,21.61
2019-02-22T10:39:27.664Z,21.58
2019-02-22T10:40:27.661Z,21.61
2019-02-22T10:41:27.656Z,21.63
2019-02-22T10:42:27.630Z,21.56
2019-02-22T10:43:27.620Z,21.61
2019-02-22T10:44:27.619Z,21.58
2019-02-22T10:45:27.597Z,21.52
2019-02-22T10:46:27.606Z,21.61
2019-02-22T10:47:27.574Z,21.58
2019-02-22T10:48:27.564Z,21.58
2019-02-22T10:49:27.554Z,21.64
2019-02-22T10:50:27.552Z,21.58
2019-02-22T10:51:27.546Z,21.58
2019-02-22T10:52:27.521Z,21.58
2019-02-22T10:53:27.510Z,21.56
2019-02-22T10:54:27.497Z,21.58
2019-02-22T10:55:27.486Z,21.63
2019-02-22T10:56:28.360Z,21.59
2019-02-22T10:57:27.478Z,21.58
2019-02-22T10:58:27.453Z,21.59
2019-02-22T10:59:27.441Z,21.58
2019-02-22T11:00:27.429Z,21.53
2019-02-22T11:01:27.453Z,21.58
2019-02-22T11:02:27.424Z,21.58
2019-02-22T11:03:27.403Z,21.61
2019-02-22T11:04:27.389Z,21.59
2019-02-22T11:05:27.373Z,21.58
2019-02-22T11:06:27.378Z,21.63
2019-02-22T11:07:27.351Z,21.66
2019-02-22T11:08:27.346Z,21.61
2019-02-22T11:09:27.331Z,21.63
2019-02-22T11:10:27.319Z,21.67
2019-02-22T11:11:27.324Z,21.64
2019-02-22T11:12:27.297Z,21.63
2019-02-22T11:13:27.286Z,21.66
2019-02-22T11:14:29.380Z,21.64
2019-02-22T11:15:27.263Z,21.64
2019-02-22T11:16:27.270Z,21.66
2019-02-22T11:17:27.243Z,21.75
2019-02-22T11:18:27.242Z,21.63
2019-02-22T11:19:27.219Z,21.75
2019-02-22T11:20:27.216Z,21.79
2019-02-22T11:21:27.218Z,21.82
2019-02-22T11:22:27.190Z,21.82
2019-02-22T11:23:27.179Z,21.77
2019-02-22T11:24:27.179Z,21.79
2019-02-22T11:25:27.153Z,21.85
2019-02-22T11:26:27.166Z,21.86
2019-02-22T11:27:27.131Z,21.96
2019-02-22T11:28:27.122Z,21.99
2019-02-22T11:29:27.111Z,22.01
2019-02-22T11:30:27.098Z,22.06
2019-02-22T11:31:27.099Z,22.17
2019-02-22T11:32:27.203Z,22.14
2019-02-22T11:33:27.063Z,22.11
2019-02-22T11:34:27.053Z,22.11
2019-02-22T11:35:27.113Z,22.17
2019-02-22T11:36:27.058Z,22.29
2019-02-22T11:37:27.026Z,22.30
2019-02-22T11:38:27.022Z,22.30
2019-02-22T11:39:26.996Z,22.29
2019-02-22T11:40:26.988Z,22.42
2019-02-22T11:41:26.977Z,22.57
2019-02-22T11:42:26.977Z,22.61
2019-02-22T11:43:26.952Z,22.54
2019-02-22T11:44:26.945Z,22.76
2019-02-22T11:45:26.932Z,22.85
2019-02-22T11:46:26.920Z,22.89
2019-02-22T11:47:26.938Z,22.75
2019-02-22T11:48:26.898Z,22.76
2019-02-22T11:49:26.887Z,22.67
2019-02-22T11:50:26.885Z,22.63
2019-02-22T11:51:26.868Z,22.74
2019-02-22T11:52:26.879Z,22.72
2019-02-22T11:53:26.846Z,22.69
2019-02-22T11:54:26.837Z,22.76
2019-02-22T11:55:26.823Z,22.67
2019-02-22T11:56:26.818Z,22.78
2019-02-22T11:57:26.820Z,22.72
2019-02-22T11:58:26.795Z,22.75
2019-02-22T11:59:26.780Z,22.72
2019-02-22T12:00:26.779Z,22.86
2019-02-22T12:01:26.759Z,22.91
2019-02-22T12:02:26.771Z,22.91
2019-02-22T12:03:26.738Z,22.91
2019-02-22T12:04:26.726Z,22.96
2019-02-22T12:05:26.714Z,22.89
2019-02-22T12:06:26.703Z,22.99
2019-02-22T12:07:26.709Z,22.89
2019-02-22T12:08:26.695Z,22.91
2019-02-22T12:09:26.672Z,22.88
2019-02-22T12:10:26.670Z,22.91
2019-02-22T12:11:26.650Z,22.94
2019-02-22T12:12:26.655Z,22.96
2019-02-22T12:13:26.628Z,23.06
2019-02-22T12:14:26.624Z,23.18
2019-02-22T12:15:26.605Z,23.19
2019-02-22T12:16:26.595Z,23.15
2019-02-22T12:17:26.599Z,23.14
2019-02-22T12:18:26.573Z,23.18
2019-02-22T12:19:26.561Z,23.22
2019-02-22T12:20:26.557Z,23.21
2019-02-22T12:21:26.539Z,23.37
2019-02-22T12:22:26.588Z,24.04
2019-02-22T12:23:26.540Z,24.39
2019-02-22T12:24:26.505Z,24.86
2019-02-22T12:25:26.493Z,25.19
2019-02-22T12:26:26.494Z,25.39
2019-02-22T12:27:26.489Z,25.53
2019-02-22T12:28:26.459Z,25.69
2019-02-22T12:29:26.450Z,25.67
2019-02-22T12:30:26.445Z,25.48
2019-02-22T12:31:26.427Z,25.72
2019-02-22T12:32:26.440Z,26.23
2019-02-22T12:33:26.404Z,26.41
2019-02-22T12:34:26.394Z,26.61
2019-02-22T12:35:26.382Z,26.41
2019-02-22T12:36:26.373Z,26.24
2019-02-22T12:37:26.378Z,26.23
2019-02-22T12:38:28.180Z,26.12
2019-02-22T12:39:26.341Z,25.66
2019-02-22T12:40:26.404Z,25.42
2019-02-22T12:41:26.315Z,25.08
2019-02-22T12:42:26.318Z,24.86
2019-02-22T12:43:26.341Z,24.74
2019-02-22T12:44:26.286Z,24.60
2019-02-22T12:45:26.274Z,24.52
2019-02-22T12:46:26.268Z,24.37
2019-02-22T12:47:26.263Z,24.21
2019-02-22T12:48:26.238Z,24.06
2019-02-22T12:49:26.229Z,24.04
2019-02-22T12:50:26.216Z,23.94
2019-02-22T12:51:26.205Z,24.08
2019-02-22T12:52:26.214Z,24.19